createdAt,value
2018-09-15T00:00:08.210Z,10.57
2018-09-15T00:02:36.485Z,13.63
2018-09-15T00:05:04.953Z,12.63
2018-09-15T00:07:33.145Z,11.47
2018-09-15T00:10:01.413Z,14.90
2018-09-15T00:12:29.690Z,11.07
2018-09-15T00:14:57.954Z,13.97
2018-09-15T00:17:26.229Z,13.40
2018-09-15T00:19:54.479Z,11.63
2018-09-15T00:22:22.717Z,10.77
2018-09-15T00:24:50.990Z,15.67
2018-09-15T00:27:19.219Z,10.93
2018-09-15T00:29:47.461Z,11.33
2018-09-15T00:32:15.709Z,8.90
2018-09-15T00:34:43.974Z,10.57
2018-09-15T00:37:12.222Z,11.93
2018-09-15T00:39:40.519Z,10.37
2018-09-15T00:42:08.775Z,11.00
2018-09-15T00:44:36.960Z,9.63
2018-09-15T00:47:05.933Z,10.83
2018-09-15T00:49:34.137Z,9.83
2018-09-15T00:52:02.396Z,10.30
2018-09-15T00:54:30.649Z,8.60
2018-09-15T00:56:58.877Z,9.43
2018-09-15T00:59:27.129Z,8.23
2018-09-15T01:01:55.450Z,8.80
2018-09-15T01:04:23.789Z,12.67
2018-09-15T01:06:52.158Z,9.93
2018-09-15T01:09:20.356Z,10.53
2018-09-15T01:11:48.685Z,8.73
2018-09-15T01:14:16.998Z,10.93
2018-09-15T01:16:45.220Z,13.13
2018-09-15T01:19:13.457Z,11.93
2018-09-15T01:21:41.655Z,12.73
2018-09-15T01:24:10.209Z,12.20
2018-09-15T01:26:38.431Z,14.23
2018-09-15T01:29:06.675Z,12.20
2018-09-15T01:31:34.957Z,18.07
2018-09-15T01:34:03.229Z,13.20
2018-09-15T01:36:31.501Z,14.17
2018-09-15T01:38:59.707Z,11.97
2018-09-15T01:41:27.929Z,11.60
2018-09-15T01:43:56.322Z,12.07
2018-09-15T01:46:24.582Z,60.13
2018-09-15T01:48:52.838Z,16.13
2018-09-15T01:51:21.157Z,12.57
2018-09-15T01:53:49.365Z,12.73
2018-09-15T01:56:17.613Z,16.57
2018-09-15T01:58:45.838Z,15.50
2018-09-15T02:01:14.086Z,16.57
2018-09-15T02:03:42.313Z,19.17
2018-09-15T02:06:10.637Z,18.23
2018-09-15T02:08:38.897Z,22.20
2018-09-15T02:11:07.141Z,21.50
2018-09-15T02:13:35.350Z,22.83
2018-09-15T02:16:03.606Z,22.80
2018-09-15T02:18:31.870Z,22.50
2018-09-15T02:21:00.097Z,16.80
2018-09-15T02:23:28.338Z,19.80
2018-09-15T02:25:56.684Z,22.03
2018-09-15T02:28:24.897Z,24.57
2018-09-15T02:30:53.097Z,23.53
2018-09-15T02:33:21.365Z,18.60
2018-09-15T02:35:49.604Z,20.47
2018-09-15T02:38:17.859Z,20.23
2018-09-15T02:40:46.093Z,19.73
2018-09-15T02:43:14.343Z,22.57
2018-09-15T02:45:42.646Z,24.00
2018-09-15T02:48:10.900Z,17.23
2018-09-15T02:50:39.171Z,19.30
2018-09-15T02:53:07.557Z,21.73
2018-09-15T02:55:35.771Z,18.40
2018-09-15T02:58:04.017Z,18.00
2018-09-15T03:00:32.209Z,20.23
2018-09-15T03:03:00.451Z,20.17
2018-09-15T03:05:28.649Z,20.90
2018-09-15T03:07:56.933Z,18.03
2018-09-15T03:10:25.123Z,18.63
2018-09-15T03:12:53.331Z,20.70
2018-09-15T03:15:21.545Z,22.43
2018-09-15T03:17:49.795Z,17.60
2018-09-15T03:20:18.028Z,23.20
2018-09-15T03:22:46.281Z,21.37
2018-09-15T03:25:14.503Z,20.13
2018-09-15T03:27:42.744Z,19.47
2018-09-15T03:30:11.043Z,22.03
2018-09-15T03:32:39.257Z,21.33
2018-09-15T03:35:07.460Z,26.50
2018-09-15T03:37:35.725Z,22.70
2018-09-15T03:40:03.982Z,21.87
2018-09-15T03:42:32.265Z,22.20
2018-09-15T03:45:00.475Z,25.43
2018-09-15T03:47:28.725Z,18.93
2018-09-15T03:49:56.971Z,23.23
2018-09-15T03:52:25.227Z,21.33
2018-09-15T03:54:53.516Z,21.63
2018-09-15T03:57:21.771Z,21.83
2018-09-15T03:59:50.075Z,23.03
2018-09-15T04:02:18.306Z,32.17
2018-09-15T04:04:46.534Z,29.17
2018-09-15T04:07:14.793Z,26.33
2018-09-15T04:09:43.010Z,28.93
2018-09-15T04:12:11.495Z,26.70
2018-09-15T04:14:39.753Z,27.47
2018-09-15T04:17:14.716Z,26.30
2018-09-15T04:19:43.002Z,29.87
2018-09-15T04:22:11.336Z,25.67
2018-09-15T04:24:39.561Z,25.37
2018-09-15T04:27:07.866Z,26.43
2018-09-15T04:29:36.110Z,27.80
2018-09-15T04:32:04.348Z,23.40
2018-09-15T04:34:32.766Z,30.70
2018-09-15T04:37:01.030Z,26.50
2018-09-15T04:39:29.240Z,30.27
2018-09-15T04:41:57.441Z,33.60
2018-09-15T04:44:25.687Z,31.57
2018-09-15T04:46:53.916Z,30.50
2018-09-15T04:49:22.185Z,34.20
2018-09-15T04:51:50.432Z,29.00
2018-09-15T04:54:18.660Z,29.30
2018-09-15T04:56:46.882Z,28.53
2018-09-15T04:59:15.109Z,32.47
2018-09-15T05:01:43.334Z,28.97
2018-09-15T05:04:11.735Z,27.80
2018-09-15T05:06:40.005Z,31.73
2018-09-15T05:09:09.973Z,31.70
2018-09-15T05:11:38.231Z,31.97
2018-09-15T05:14:06.614Z,29.33
2018-09-15T05:16:34.850Z,31.40
2018-09-15T05:19:03.109Z,35.97
2018-09-15T05:21:31.363Z,31.07
2018-09-15T05:23:59.676Z,29.90
2018-09-15T05:26:27.920Z,27.30
2018-09-15T05:28:56.192Z,29.37
2018-09-15T05:31:24.471Z,29.43
2018-09-15T05:33:52.681Z,27.17
2018-09-15T05:36:20.941Z,35.40
2018-09-15T05:38:49.170Z,29.63
2018-09-15T05:41:17.392Z,31.60
2018-09-15T05:43:47.457Z,28.50
2018-09-15T05:46:15.656Z,24.67
2018-09-15T05:48:43.934Z,27.63
2018-09-15T05:51:12.343Z,32.90
2018-09-15T05:53:40.659Z,25.50
2018-09-15T05:56:08.968Z,26.10
2018-09-15T05:58:37.180Z,26.83
2018-09-15T06:01:05.550Z,24.17
2018-09-15T06:03:33.829Z,30.27
2018-09-15T06:06:02.163Z,27.87
2018-09-15T06:08:30.477Z,28.90
2018-09-15T06:10:58.826Z,30.13
2018-09-15T06:13:27.043Z,24.83
2018-09-15T06:15:55.309Z,27.90
2018-09-15T06:18:23.708Z,27.70
2018-09-15T06:20:51.984Z,27.60
2018-09-15T06:23:20.240Z,25.17
2018-09-15T06:25:48.469Z,29.87
2018-09-15T06:28:16.790Z,26.33
2018-09-15T06:30:45.036Z,22.97
2018-09-15T06:33:13.385Z,30.60
2018-09-15T06:35:41.662Z,27.87
2018-09-15T06:38:09.983Z,30.30
2018-09-15T06:40:38.240Z,25.90
2018-09-15T06:43:06.593Z,31.73
2018-09-15T06:45:35.011Z,28.43
2018-09-15T06:48:03.285Z,29.33
2018-09-15T06:50:31.557Z,31.03
2018-09-15T06:52:59.835Z,26.93
2018-09-15T06:55:28.191Z,25.60
2018-09-15T06:57:56.501Z,24.10
2018-09-15T07:00:24.741Z,27.87
2018-09-15T07:02:52.977Z,29.63
2018-09-15T07:05:21.218Z,23.83
2018-09-15T07:07:49.714Z,24.63
2018-09-15T07:10:17.977Z,25.33
2018-09-15T07:12:46.277Z,22.80
2018-09-15T07:15:14.546Z,25.20
2018-09-15T07:17:42.742Z,22.67
2018-09-15T07:20:11.657Z,25.10
2018-09-15T07:22:39.832Z,21.30
2018-09-15T07:25:08.109Z,23.27
2018-09-15T07:27:36.406Z,24.60
2018-09-15T07:30:04.723Z,18.20
2018-09-15T07:32:33.033Z,22.33
2018-09-15T07:35:01.274Z,19.67
2018-09-15T07:37:29.569Z,19.80
2018-09-15T07:39:57.901Z,21.00
2018-09-15T07:42:26.213Z,20.63
2018-09-15T07:44:54.502Z,20.80
2018-09-15T07:47:22.774Z,17.40
2018-09-15T07:49:51.396Z,16.43
2018-09-15T07:52:19.681Z,18.23
2018-09-15T07:54:47.957Z,18.10
2018-09-15T07:57:16.238Z,18.50
2018-09-15T07:59:44.546Z,21.40
2018-09-15T08:02:18.142Z,15.50
2018-09-15T08:04:46.513Z,17.67
2018-09-15T08:07:14.946Z,16.80
2018-09-15T08:09:49.501Z,16.33
2018-09-15T08:12:18.830Z,18.43
2018-09-15T08:14:47.319Z,17.13
2018-09-15T08:17:15.626Z,15.57
2018-09-15T08:19:43.903Z,14.83
2018-09-15T08:22:12.129Z,16.63
2018-09-15T08:24:40.420Z,16.73
2018-09-15T08:27:08.806Z,17.90
2018-09-15T08:29:37.036Z,16.73
2018-09-15T08:32:05.466Z,14.50
2018-09-15T08:34:33.721Z,17.10
2018-09-15T08:37:02.003Z,15.73
2018-09-15T08:39:30.269Z,16.90
2018-09-15T08:41:58.630Z,16.60
2018-09-15T08:44:27.641Z,14.80
2018-09-15T08:46:55.995Z,13.80
2018-09-15T08:49:24.216Z,17.17
2018-09-15T08:51:52.437Z,19.13
2018-09-15T08:54:20.759Z,16.83
2018-09-15T08:56:49.094Z,15.80
2018-09-15T08:59:17.373Z,18.43
2018-09-15T09:01:45.588Z,17.27
2018-09-15T09:04:13.875Z,18.07
2018-09-15T09:06:42.125Z,15.23
2018-09-15T09:09:11.853Z,14.90
2018-09-15T09:11:40.144Z,13.40
2018-09-15T09:14:08.535Z,16.87
2018-09-15T09:16:36.969Z,12.77
2018-09-15T09:19:05.161Z,11.33
2018-09-15T09:21:33.456Z,14.27
2018-09-15T09:24:01.692Z,11.03
2018-09-15T09:26:30.100Z,11.43
2018-09-15T09:28:58.282Z,14.73
2018-09-15T09:31:26.529Z,13.30
2018-09-15T09:33:54.889Z,11.10
2018-09-15T09:36:23.093Z,13.07
2018-09-15T09:38:51.321Z,12.13
2018-09-15T09:41:19.593Z,11.87
2018-09-15T09:43:47.857Z,12.87
2018-09-15T09:46:16.679Z,12.30
2018-09-15T09:48:44.957Z,10.60
2018-09-15T09:51:13.231Z,12.67
2018-09-15T09:53:41.497Z,11.33
2018-09-15T09:56:09.785Z,10.67
2018-09-15T09:58:38.026Z,14.10
2018-09-15T10:01:11.529Z,12.53
2018-09-15T10:03:39.822Z,12.20
2018-09-15T10:06:08.205Z,12.07
2018-09-15T10:08:36.497Z,11.70
2018-09-15T10:11:05.365Z,12.60
2018-09-15T10:13:33.617Z,10.50
2018-09-15T10:16:02.037Z,13.50
2018-09-15T10:18:30.719Z,13.93
2018-09-15T10:20:59.032Z,10.83
2018-09-15T10:23:27.280Z,11.37
2018-09-15T10:25:55.555Z,9.50
2018-09-15T10:28:23.759Z,11.30
2018-09-15T10:30:51.999Z,10.77
2018-09-15T10:33:26.968Z,11.33
2018-09-15T10:35:55.395Z,10.67
2018-09-15T10:38:23.833Z,9.50
2018-09-15T10:40:52.050Z,9.40
2018-09-15T10:43:20.334Z,9.67
2018-09-15T10:45:48.665Z,10.70
2018-09-15T10:48:17.351Z,8.90
2018-09-15T10:50:45.659Z,9.60
2018-09-15T10:53:14.363Z,10.83
2018-09-15T10:55:42.660Z,8.90
2018-09-15T10:58:10.964Z,10.10
2018-09-15T11:00:39.253Z,10.80
2018-09-15T11:03:07.497Z,11.47
2018-09-15T11:05:35.785Z,10.57
2018-09-15T11:08:04.042Z,11.40
2018-09-15T11:10:32.297Z,12.00
2018-09-15T11:13:00.900Z,9.93
2018-09-15T11:15:29.364Z,10.87
2018-09-15T11:17:57.575Z,10.23
2018-09-15T11:20:25.853Z,9.90
2018-09-15T11:22:54.094Z,9.37
2018-09-15T11:25:22.287Z,9.27
2018-09-15T11:27:50.577Z,8.87
2018-09-15T11:30:18.877Z,8.90
2018-09-15T11:32:47.206Z,8.40
2018-09-15T11:35:15.463Z,8.70
2018-09-15T11:37:43.741Z,8.27
2018-09-15T11:40:12.066Z,9.40
2018-09-15T11:42:40.317Z,11.10
2018-09-15T11:45:08.565Z,8.97
2018-09-15T11:47:36.848Z,8.77
2018-09-15T11:50:05.214Z,9.20
2018-09-15T11:52:33.457Z,8.40
2018-09-15T11:55:01.691Z,10.03
2018-09-15T11:57:30.898Z,9.60
2018-09-15T11:59:59.280Z,7.90
2018-09-15T12:02:29.537Z,8.90
2018-09-15T12:04:58.274Z,9.00
2018-09-15T12:07:26.962Z,9.63
2018-09-15T12:09:55.449Z,10.90
2018-09-15T12:12:23.811Z,7.93
2018-09-15T12:14:52.106Z,8.67
2018-09-15T12:17:20.394Z,9.30
2018-09-15T12:19:48.652Z,8.63
2018-09-15T12:22:18.005Z,9.13
2018-09-15T12:24:46.249Z,8.60
2018-09-15T12:27:14.554Z,9.33
2018-09-15T12:29:42.829Z,8.07
2018-09-15T12:32:11.059Z,8.27
2018-09-15T12:34:39.447Z,8.00
2018-09-15T12:37:07.862Z,7.97
2018-09-15T12:39:36.089Z,7.80
2018-09-15T12:42:04.599Z,10.63
2018-09-15T12:44:32.850Z,10.73
2018-09-15T12:47:01.115Z,8.30
2018-09-15T12:49:29.381Z,6.73
2018-09-15T12:51:57.691Z,9.17
2018-09-15T12:54:26.002Z,7.57
2018-09-15T12:56:54.438Z,6.97
2018-09-15T12:59:22.724Z,6.83
2018-09-15T13:01:51.014Z,6.27
2018-09-15T13:04:19.341Z,8.73
2018-09-15T13:06:47.650Z,6.90
2018-09-15T13:09:15.998Z,10.40
2018-09-15T13:11:44.214Z,12.53
2018-09-15T13:14:12.449Z,7.20
2018-09-15T13:16:40.703Z,10.20
2018-09-15T13:19:09.017Z,5.77
2018-09-15T13:21:37.287Z,6.50
2018-09-15T13:24:05.898Z,6.20
2018-09-15T13:26:34.152Z,6.40
2018-09-15T13:29:02.371Z,5.83
2018-09-15T13:31:30.597Z,5.53
2018-09-15T13:33:58.908Z,8.07
2018-09-15T13:36:27.469Z,6.50
2018-09-15T13:38:55.757Z,5.47
2018-09-15T13:41:24.026Z,5.20
2018-09-15T13:43:52.317Z,6.27
2018-09-15T13:46:20.588Z,7.53
2018-09-15T13:48:48.942Z,4.93
2018-09-15T13:51:17.138Z,4.00
2018-09-15T13:53:45.379Z,7.07
2018-09-15T13:56:13.683Z,7.13
2018-09-15T13:58:42.074Z,4.83
2018-09-15T14:01:10.245Z,6.10
2018-09-15T14:03:38.592Z,5.10
2018-09-15T14:06:06.954Z,5.27
2018-09-15T14:08:35.208Z,5.40
2018-09-15T14:11:03.444Z,5.70
2018-09-15T14:13:31.718Z,5.30
2018-09-15T14:15:59.962Z,5.90
2018-09-15T14:18:28.205Z,5.30
2018-09-15T14:20:56.457Z,5.57
2018-09-15T14:23:24.734Z,4.57
2018-09-15T14:25:52.987Z,6.83
2018-09-15T14:28:21.461Z,5.00
2018-09-15T14:30:49.837Z,6.47
2018-09-15T14:33:18.147Z,4.27
2018-09-15T14:35:46.394Z,4.90
2018-09-15T14:38:14.654Z,5.30
2018-09-15T14:40:42.901Z,5.00
2018-09-15T14:43:11.114Z,4.50
2018-09-15T14:45:39.299Z,4.57
2018-09-15T14:48:07.681Z,4.47
2018-09-15T14:50:35.816Z,3.87
2018-09-15T14:53:04.138Z,5.13
2018-09-15T14:55:32.697Z,3.97
2018-09-15T14:58:00.981Z,5.93
2018-09-15T15:00:29.245Z,6.93
2018-09-15T15:03:00.410Z,4.33
2018-09-15T15:05:28.698Z,4.80
2018-09-15T15:07:56.953Z,4.50
2018-09-15T15:10:25.217Z,5.13
2018-09-15T15:12:53.498Z,6.87
2018-09-15T15:15:21.869Z,7.17
2018-09-15T15:17:50.049Z,4.70
2018-09-15T15:20:18.373Z,5.17
2018-09-15T15:22:46.683Z,6.40
2018-09-15T15:25:15.104Z,5.20
2018-09-15T15:27:44.085Z,5.50
2018-09-15T15:30:12.337Z,4.87
2018-09-15T15:32:40.750Z,5.80
2018-09-15T15:35:09.007Z,6.10
2018-09-15T15:37:37.268Z,4.67
2018-09-15T15:40:05.605Z,5.30
2018-09-15T15:42:33.953Z,4.93
2018-09-15T15:45:02.217Z,4.40
2018-09-15T15:47:30.477Z,4.37
2018-09-15T15:49:58.857Z,4.90
2018-09-15T15:52:27.237Z,4.80
2018-09-15T15:54:55.590Z,4.57
2018-09-15T15:57:23.782Z,4.90
2018-09-15T15:59:52.066Z,4.53
2018-09-15T16:02:20.362Z,4.47
2018-09-15T16:04:49.017Z,4.50
2018-09-15T16:07:17.297Z,5.00
2018-09-15T16:09:45.538Z,3.73
2018-09-15T16:12:13.794Z,6.07
2018-09-15T16:14:41.986Z,5.00
2018-09-15T16:17:10.302Z,5.90
2018-09-15T16:19:38.550Z,5.57
2018-09-15T16:22:07.121Z,4.20
2018-09-15T16:24:35.398Z,4.23
2018-09-15T16:27:03.625Z,4.87
2018-09-15T16:29:31.845Z,6.20
2018-09-15T16:32:00.206Z,4.13
2018-09-15T16:34:28.472Z,5.03
2018-09-15T16:36:56.643Z,4.27
2018-09-15T16:39:24.895Z,4.93
2018-09-15T16:41:53.107Z,4.57
2018-09-15T16:44:21.402Z,4.07
2018-09-15T16:46:50.737Z,4.33
2018-09-15T16:49:19.142Z,5.73
2018-09-15T16:51:47.240Z,4.67
2018-09-15T16:54:15.430Z,5.90
2018-09-15T16:56:43.686Z,5.70
2018-09-15T17:01:46.535Z,4.87
2018-09-15T17:04:14.750Z,4.90
2018-09-15T17:06:42.937Z,6.13
2018-09-15T17:09:12.222Z,6.90
2018-09-15T17:11:40.421Z,6.90
2018-09-15T17:14:08.685Z,5.20
2018-09-15T17:16:37.023Z,6.53
2018-09-15T17:19:05.553Z,6.83
2018-09-15T17:21:33.825Z,8.47
2018-09-15T17:24:02.126Z,7.30
2018-09-15T17:26:30.318Z,6.13
2018-09-15T17:28:58.527Z,8.63
2018-09-15T17:31:26.957Z,7.53
2018-09-15T17:33:55.296Z,6.27
2018-09-15T17:36:23.552Z,7.10
2018-09-15T17:38:51.761Z,4.77
2018-09-15T17:41:20.077Z,5.50
2018-09-15T17:43:48.437Z,7.73
2018-09-15T17:46:16.660Z,6.90
2018-09-15T17:48:44.973Z,9.90
2018-09-15T17:51:13.468Z,9.00
2018-09-15T17:53:41.685Z,5.57
2018-09-15T17:56:10.024Z,6.07
2018-09-15T17:58:38.215Z,6.23
2018-09-15T18:01:06.505Z,9.83
2018-09-15T18:03:35.284Z,7.80
2018-09-15T18:06:03.417Z,6.67
2018-09-15T18:08:31.674Z,11.40
2018-09-15T18:10:59.921Z,9.77
2018-09-15T18:13:28.216Z,11.90
2018-09-15T18:15:56.892Z,10.20
2018-09-15T18:18:25.264Z,10.43
2018-09-15T18:20:53.534Z,6.70
2018-09-15T18:23:21.887Z,9.30
2018-09-15T18:25:50.285Z,7.80
2018-09-15T18:28:18.506Z,6.03
2018-09-15T18:30:47.005Z,8.33
2018-09-15T18:33:15.490Z,6.77
2018-09-15T18:35:44.237Z,7.60
2018-09-15T18:38:12.530Z,12.20
2018-09-15T18:40:40.827Z,10.90
2018-09-15T18:43:09.027Z,10.20
2018-09-15T18:45:37.306Z,7.83
2018-09-15T18:48:05.537Z,10.47
2018-09-15T18:50:33.769Z,11.03
2018-09-15T18:53:01.987Z,10.07
2018-09-15T18:55:30.169Z,9.47
2018-09-15T18:57:58.431Z,7.00
2018-09-15T19:00:26.689Z,6.67
2018-09-15T19:02:54.950Z,8.60
2018-09-15T19:05:23.185Z,6.70
2018-09-15T19:07:51.437Z,7.20
2018-09-15T19:10:19.821Z,6.83
2018-09-15T19:12:48.069Z,7.57
2018-09-15T19:15:16.313Z,6.77
2018-09-15T19:17:44.587Z,7.10
2018-09-15T19:20:12.817Z,7.60
2018-09-15T19:22:41.069Z,13.27
2018-09-15T19:25:09.414Z,8.37
2018-09-15T19:27:37.677Z,7.33
2018-09-15T19:30:06.882Z,7.60
2018-09-15T19:32:35.165Z,8.03
2018-09-15T19:35:03.589Z,9.93
2018-09-15T19:37:31.906Z,8.27
2018-09-15T19:40:00.150Z,12.20
2018-09-15T19:42:28.491Z,10.10
2018-09-15T19:44:56.758Z,10.87
2018-09-15T19:47:25.043Z,11.20
2018-09-15T19:49:53.606Z,11.60
2018-09-15T19:52:21.825Z,9.70
2018-09-15T19:54:50.045Z,11.33
2018-09-15T19:57:18.351Z,9.20
2018-09-15T19:59:46.629Z,11.23
2018-09-15T20:02:15.534Z,15.90
2018-09-15T20:04:43.777Z,10.47
2018-09-15T20:07:12.024Z,8.57
2018-09-15T20:09:40.414Z,10.27
2018-09-15T20:12:08.847Z,10.47
2018-09-15T20:14:37.045Z,10.10
2018-09-15T20:17:04.262Z,8.63
2018-09-15T20:19:31.558Z,9.00
2018-09-15T20:21:58.793Z,9.10
2018-09-15T20:24:27.097Z,9.73
2018-09-15T20:26:55.404Z,8.47
2018-09-15T20:29:23.762Z,9.90
2018-09-15T20:31:51.956Z,9.77
2018-09-15T20:34:20.602Z,10.47
2018-09-15T20:36:48.913Z,9.73
2018-09-15T20:39:17.337Z,11.60
2018-09-15T20:41:45.584Z,10.00
2018-09-15T20:44:13.856Z,15.87
2018-09-15T20:46:42.119Z,10.97
2018-09-15T20:49:10.618Z,9.70
2018-09-15T20:51:38.904Z,10.40
2018-09-15T20:54:07.314Z,10.67
2018-09-15T20:56:35.640Z,11.23
2018-09-15T20:59:03.937Z,11.10
2018-09-15T21:01:32.298Z,11.63
2018-09-15T21:04:00.577Z,11.20
2018-09-15T21:06:28.835Z,10.53
2018-09-15T21:08:57.126Z,9.63
2018-09-15T21:11:25.657Z,10.13
2018-09-15T21:13:54.435Z,10.37
2018-09-15T21:16:22.621Z,10.63
2018-09-15T21:18:51.332Z,9.90
2018-09-15T21:21:19.538Z,11.87
2018-09-15T21:23:47.754Z,12.10
2018-09-15T21:26:16.080Z,12.47
2018-09-15T21:28:45.442Z,9.90
2018-09-15T21:31:13.702Z,13.03
2018-09-15T21:33:41.993Z,11.53
2018-09-15T21:36:10.357Z,12.17
2018-09-15T21:38:39.062Z,12.97
2018-09-15T21:41:07.318Z,11.83
2018-09-15T21:43:35.625Z,12.97
2018-09-15T21:46:03.903Z,11.60
2018-09-15T21:48:32.277Z,12.80
2018-09-15T21:51:00.573Z,10.87
2018-09-15T21:53:28.935Z,13.57
2018-09-15T21:55:57.202Z,13.20
2018-09-15T21:58:25.517Z,12.87
2018-09-15T22:00:58.018Z,13.23
2018-09-15T22:03:26.329Z,15.77
2018-09-15T22:05:54.553Z,11.47
2018-09-15T22:08:22.861Z,9.30
2018-09-15T22:10:51.090Z,9.43
2018-09-15T22:13:19.408Z,8.97
2018-09-15T22:15:47.752Z,9.90
2018-09-15T22:18:16.002Z,10.60
2018-09-15T22:20:44.225Z,13.33
2018-09-15T22:23:12.484Z,9.30
2018-09-15T22:25:40.755Z,10.80
2018-09-15T22:28:09.125Z,13.23
2018-09-15T22:30:37.426Z,12.73
2018-09-15T22:33:05.725Z,10.33
2018-09-15T22:35:34.006Z,10.03
2018-09-15T22:38:02.256Z,9.60
2018-09-15T22:40:30.536Z,10.40
2018-09-15T22:42:58.790Z,10.23
2018-09-15T22:45:27.244Z,10.87
2018-09-15T22:47:55.469Z,11.00
2018-09-15T22:50:23.683Z,9.97
2018-09-15T22:52:52.124Z,12.40
2018-09-15T22:55:20.365Z,8.77
2018-09-15T22:57:48.570Z,10.50
2018-09-15T23:00:17.226Z,9.90
2018-09-15T23:02:45.451Z,10.63
2018-09-15T23:05:13.713Z,10.17
2018-09-15T23:07:42.001Z,10.80
2018-09-15T23:10:10.259Z,10.60
2018-09-15T23:12:38.609Z,10.43
2018-09-15T23:15:06.939Z,11.23
2018-09-15T23:17:35.981Z,11.17
2018-09-15T23:20:04.305Z,12.67
2018-09-15T23:22:32.559Z,11.17
2018-09-15T23:25:00.815Z,11.37
2018-09-15T23:27:29.101Z,10.63
2018-09-15T23:29:57.546Z,9.73
2018-09-15T23:32:25.782Z,10.23
2018-09-15T23:34:54.108Z,10.87
2018-09-15T23:37:22.330Z,11.97
2018-09-15T23:39:50.768Z,16.77
2018-09-15T23:42:19.006Z,12.17
2018-09-15T23:44:47.322Z,12.27
2018-09-15T23:47:15.548Z,11.17
2018-09-15T23:49:43.770Z,11.00
2018-09-15T23:52:11.997Z,10.77
2018-09-15T23:54:40.230Z,10.53
2018-09-15T23:57:08.517Z,11.47
2018-09-15T23:59:36.784Z,11.43
